This is the latest recevied weather packets stored in our database for station/object N6RDS. If no packets are shown the sender has not sent any weather packets the latest 10 day(s).
| Time | Temp. | Humidity | Pressure | Rain* | Wind** | Luminosity | Snow |
|---|---|---|---|---|---|---|---|
| 1777924683 | 16.11° C | 39% | 1022.1 hPa | 0 mm | - | 528 W/m² | - |
| 1777924379 | 15.56° C | 39% | 1022.1 hPa | 0 mm | - | 671 W/m² | - |
| 1777924076 | 14.44° C | 41% | 1021.7 hPa | 0 mm | - | 779 W/m² | - |
| 1777923773 | 15.56° C | 37% | 1021.5 hPa | 0 mm | - | 374 W/m² | - |
| 1777923469 | 15.56° C | 35% | 1021.6 hPa | 0 mm | - | 562 W/m² | - |
| 1777923166 | 16.11° C | 35% | 1021.7 hPa | 0 mm | - | 753 W/m² | - |
| 1777922865 | 16.67° C | 33% | 1021.6 hPa | 0 mm | - | 324 W/m² | - |
| 1777922562 | 16.11° C | 36% | 1021.6 hPa | 0 mm | - | 580 W/m² | - |
| 1777922261 | 15.56° C | 36% | 1021.5 hPa | 0 mm | - | 482 W/m² | - |
| 1777921957 | 16.11° C | 36% | 1022.1 hPa | 0 mm | - | 610 W/m² | - |
| 1777921653 | 16.67° C | 36% | 1021.8 hPa | 0 mm | - | 920 W/m² | - |
| 1777921350 | 16.11° C | 37% | 1022 hPa | 0 mm | - | 771 W/m² | - |
| 1777921046 | 16.11° C | 39% | 1021.8 hPa | 0 mm | - | 626 W/m² | - |
| 1777920743 | 16.11° C | 42% | 1022.1 hPa | 0 mm | - | 758 W/m² | - |
| 1777920439 | 15° C | 46% | 1021.6 hPa | 0 mm | - | 760 W/m² | - |
| 1777920135 | 15° C | 47% | 1021.8 hPa | 0 mm | - | 630 W/m² | - |
| 1777919831 | 13.89° C | 48% | 1022 hPa | 0 mm | - | 371 W/m² | - |
| 1777919528 | 13.89° C | 51% | 1022.2 hPa | 0 mm | - | 542 W/m² | - |
| 1777919226 | 13.89° C | 50% | 1022.4 hPa | 0 mm | - | 396 W/m² | - |
| 1777918923 | 13.89° C | 46% | 1022.6 hPa | 0 mm | - | 394 W/m² | - |
| 1777918621 | 13.33° C | 48% | 1022.6 hPa | 0 mm | - | 323 W/m² | - |
| 1777918318 | 13.89° C | 50% | 1022.7 hPa | 0 mm | - | 492 W/m² | - |
| 1777918017 | 13.33° C | 51% | 1022.2 hPa | 0 mm | - | 410 W/m² | - |
| 1777917715 | 13.33° C | 51% | 1022.4 hPa | 0 mm | - | 312 W/m² | - |
| 1777917412 | 13.33° C | 51% | 1022.6 hPa | 0 mm | - | 356 W/m² | - |
* Rain latest hour (hover to see other rain measurements)
** Current wind speed in m/s (hover to see current wind gust speed)